Time;durP1;ratioP1;P1;durP2;ratioP2;P2;SDS_P1;SDS_P2;PMS_P1;PMS_P2;Temp;Humidity;BMP_temperature;BMP_pressure;BME280_temperature;BME280_humidity;BME280_pressure;Samples;Min_cycle;Max_cycle;Signal;HPM_P1;HPM_P2
2021/05/20 00:00:00;;;;;;;8.88;8.07;;;11.80;99.90;;;;;;5073984;28;20300;-80
2021/05/20 00:02:27;;;;;;;7.90;7.22;;;11.70;99.90;;;;;;5078667;28;20204;-80
2021/05/20 00:04:53;;;;;;;7.60;7.00;;;11.80;99.90;;;;;;5068251;28;20199;-80
2021/05/20 00:07:20;;;;;;;8.80;8.00;;;11.80;99.90;;;;;;5080312;28;20778;-80
2021/05/20 00:09:46;;;;;;;9.05;8.13;;;11.80;99.90;;;;;;5074289;28;20278;-80
2021/05/20 00:12:12;;;;;;;8.73;7.72;;;11.80;99.90;;;;;;5071857;28;20200;-80
2021/05/20 00:14:39;;;;;;;8.95;8.13;;;11.80;99.90;;;;;;5073821;28;20668;-80
2021/05/20 00:17:05;;;;;;;7.90;7.20;;;11.80;99.90;;;;;;5079671;28;20283;-81
2021/05/20 00:19:33;;;;;;;8.40;7.60;;;11.80;99.90;;;;;;5080735;28;20281;-79
2021/05/20 00:21:59;;;;;;;9.35;8.45;;;11.80;99.90;;;;;;5076520;28;20546;-80
2021/05/20 00:24:25;;;;;;;14.05;8.38;;;11.80;99.90;;;;;;5071425;28;20654;-81
2021/05/20 00:26:52;;;;;;;8.70;7.85;;;11.80;99.90;;;;;;5074930;28;20294;-80
2021/05/20 00:39:26;;;;;;;9.38;8.38;;;11.80;99.90;;;;;;5073699;28;20218;-80
2021/05/20 00:41:52;;;;;;;9.05;8.15;;;11.80;99.90;;;;;;5071305;28;20231;-81
2021/05/20 00:44:19;;;;;;;8.75;7.95;;;11.80;99.90;;;;;;5075443;28;20200;-80
2021/05/20 00:46:45;;;;;;;10.00;8.63;;;11.70;99.90;;;;;;5080537;28;20207;-82
2021/05/20 00:49:12;;;;;;;8.95;8.05;;;11.70;99.90;;;;;;5074442;28;20196;-81
2021/05/20 00:51:40;;;;;;;10.00;8.82;;;11.70;99.90;;;;;;5077437;28;20197;-81
2021/05/20 00:54:07;;;;;;;9.52;8.57;;;11.80;99.90;;;;;;5078230;28;20573;-80
2021/05/20 00:56:38;;;;;;;9.87;8.93;;;11.70;99.90;;;;;;5069067;28;20599;-81
2021/05/20 00:59:05;;;;;;;10.55;9.65;;;11.70;99.90;;;;;;5076112;28;20472;-80
2021/05/20 01:01:31;;;;;;;8.95;8.23;;;11.70;99.90;;;;;;5076280;28;20270;-81
2021/05/20 01:03:58;;;;;;;8.30;7.60;;;11.70;99.90;;;;;;5076369;28;20936;-82
2021/05/20 01:06:24;;;;;;;10.15;9.15;;;11.70;99.90;;;;;;5078361;28;20212;-80
2021/05/20 01:08:51;;;;;;;9.02;8.23;;;11.70;99.90;;;;;;5067535;28;20691;-81
2021/05/20 01:11:19;;;;;;;8.77;7.97;;;11.70;99.90;;;;;;5076973;28;20286;-81
2021/05/20 01:13:46;;;;;;;11.48;8.52;;;11.60;99.90;;;;;;5075843;28;20238;-80
2021/05/20 01:16:13;;;;;;;8.70;7.90;;;11.60;99.90;;;;;;5078315;28;20321;-80
2021/05/20 01:18:39;;;;;;;9.63;8.82;;;11.60;99.90;;;;;;5077948;28;20258;-80
2021/05/20 01:21:07;;;;;;;9.05;8.20;;;11.50;99.90;;;;;;5075356;28;20380;-81
2021/05/20 01:23:33;;;;;;;10.25;8.55;;;11.50;99.90;;;;;;5069522;28;20257;-80
2021/05/20 01:26:03;;;;;;;9.35;8.52;;;11.50;99.90;;;;;;5077241;28;20207;-81
2021/05/20 01:28:30;;;;;;;9.32;8.52;;;11.50;99.90;;;;;;5076681;28;20300;-81
2021/05/20 01:30:57;;;;;;;9.07;8.18;;;11.50;99.90;;;;;;5077181;28;20211;-81
2021/05/20 01:33:24;;;;;;;8.73;7.93;;;11.50;99.90;;;;;;5068724;28;20668;-80
2021/05/20 01:35:50;;;;;;;9.35;8.43;;;11.50;99.90;;;;;;5073114;28;20200;-80
2021/05/20 01:41:04;;;;;;;9.00;8.20;;;11.40;99.90;;;;;;5058359;28;20219;-81
2021/05/20 01:43:31;;;;;;;9.60;8.52;;;11.40;99.90;;;;;;5071426;28;20200;-81
2021/05/20 01:45:59;;;;;;;9.80;8.80;;;11.40;99.90;;;;;;5075567;28;20665;-80
2021/05/20 01:48:26;;;;;;;9.70;8.70;;;11.40;99.90;;;;;;5074096;28;20826;-80
2021/05/20 01:50:53;;;;;;;8.52;7.82;;;11.30;99.90;;;;;;5080118;28;20253;-80
2021/05/20 01:53:21;;;;;;;11.25;8.93;;;11.30;99.90;;;;;;5076143;28;20203;-81
2021/05/20 01:55:49;;;;;;;10.88;9.40;;;11.30;99.90;;;;;;5071424;28;20200;-79
2021/05/20 01:58:34;;;;;;;12.40;9.65;;;11.30;99.90;;;;;;5072041;28;20212;-80
2021/05/20 02:01:01;;;;;;;10.10;9.20;;;11.30;99.90;;;;;;5077800;28;20247;-80
2021/05/20 02:03:27;;;;;;;9.40;8.60;;;11.30;99.90;;;;;;5076622;28;20207;-81
2021/05/20 02:05:54;;;;;;;10.18;8.82;;;11.30;99.90;;;;;;5075916;28;20200;-81
2021/05/20 02:08:21;;;;;;;10.23;9.35;;;11.30;99.90;;;;;;5072105;28;20309;-82
2021/05/20 02:10:47;;;;;;;10.60;9.30;;;11.30;99.90;;;;;;5075109;28;20786;-81
2021/05/20 02:13:14;;;;;;;11.43;10.23;;;11.30;99.90;;;;;;5067417;28;20542;-81
2021/05/20 02:15:40;;;;;;;13.88;11.00;;;11.30;99.90;;;;;;5076647;28;20192;-81
2021/05/20 02:18:07;;;;;;;12.23;11.02;;;11.30;99.90;;;;;;5082691;28;20345;-81
2021/05/20 02:20:35;;;;;;;11.68;10.52;;;11.30;99.90;;;;;;5076236;28;20219;-81
2021/05/20 02:23:02;;;;;;;12.70;11.02;;;11.30;99.90;;;;;;5074377;28;20662;-81
2021/05/20 02:25:29;;;;;;;12.10;10.88;;;11.20;99.90;;;;;;5079718;28;20201;-81
2021/05/20 02:27:55;;;;;;;12.55;10.43;;;11.20;99.90;;;;;;5078113;28;20204;-81
2021/05/20 02:30:22;;;;;;;12.15;10.70;;;11.20;99.90;;;;;;5074976;28;20201;-80
2021/05/20 02:32:49;;;;;;;12.38;11.13;;;11.20;99.90;;;;;;5073914;28;20222;-79
2021/05/20 02:35:16;;;;;;;12.30;11.00;;;11.20;99.90;;;;;;5079410;28;20200;-81
2021/05/20 02:37:43;;;;;;;12.02;10.77;;;11.10;99.90;;;;;;5076780;28;20208;-80
2021/05/20 02:40:11;;;;;;;12.05;10.82;;;11.10;99.90;;;;;;5081304;28;20726;-81
2021/05/20 02:42:40;;;;;;;11.57;10.45;;;11.10;99.90;;;;;;5076577;28;20191;-83
2021/05/20 02:45:09;;;;;;;12.57;11.48;;;11.00;99.90;;;;;;5080846;28;20215;-81
2021/05/20 02:47:36;;;;;;;12.85;11.55;;;11.00;99.90;;;;;;5073410;28;20676;-82
2021/05/20 02:50:04;;;;;;;13.25;11.95;;;10.90;99.90;;;;;;5077212;28;20206;-79
2021/05/20 02:52:31;;;;;;;13.88;11.00;;;10.90;99.90;;;;;;5078016;28;20203;-80
2021/05/20 02:54:57;;;;;;;15.77;12.40;;;10.90;99.90;;;;;;5074856;28;20195;-80
2021/05/20 02:57:24;;;;;;;12.70;11.48;;;10.90;99.90;;;;;;5079477;28;20745;-82
2021/05/20 02:59:51;;;;;;;13.85;12.40;;;10.90;99.90;;;;;;5080760;28;20242;-80
2021/05/20 03:02:17;;;;;;;13.52;11.82;;;10.90;99.90;;;;;;5076998;28;20224;-81
2021/05/20 03:04:44;;;;;;;12.88;11.52;;;10.90;99.90;;;;;;5073423;28;20206;-82
2021/05/20 03:07:11;;;;;;;14.82;13.32;;;10.90;99.90;;;;;;5076066;28;20249;-81
2021/05/20 03:09:39;;;;;;;16.85;15.05;;;10.90;99.90;;;;;;5078254;28;20214;-81
2021/05/20 03:12:06;;;;;;;16.67;14.20;;;10.90;99.90;;;;;;5079740;28;20210;-80
2021/05/20 03:14:32;;;;;;;16.20;14.23;;;10.90;99.90;;;;;;5075271;28;20206;-81
2021/05/20 03:17:00;;;;;;;19.90;14.20;;;10.90;99.90;;;;;;5076921;28;20305;-81
2021/05/20 03:19:26;;;;;;;15.88;14.20;;;10.90;99.90;;;;;;5074882;28;20743;-80
2021/05/20 03:21:52;;;;;;;16.95;15.15;;;10.90;99.90;;;;;;5074368;28;20226;-81
2021/05/20 03:24:19;;;;;;;19.25;15.10;;;10.90;99.90;;;;;;5076361;28;20204;-82
2021/05/20 03:26:45;;;;;;;15.60;13.95;;;11.00;99.90;;;;;;5079437;28;20204;-81
2021/05/20 03:29:12;;;;;;;20.67;17.45;;;11.00;99.90;;;;;;5074802;28;20202;-81
2021/05/20 03:31:39;;;;;;;21.92;18.13;;;11.00;99.90;;;;;;5076752;28;20234;-80
2021/05/20 03:34:07;;;;;;;24.92;21.08;;;11.10;99.90;;;;;;5078415;28;20202;-82
2021/05/20 03:36:33;;;;;;;37.83;25.27;;;11.10;99.90;;;;;;5076739;28;20204;-82
2021/05/20 03:38:59;;;;;;;30.00;25.35;;;11.20;99.90;;;;;;5074998;28;20672;-83
2021/05/20 03:41:26;;;;;;;34.13;25.95;;;11.30;99.90;;;;;;5074958;28;20666;-81
2021/05/20 03:43:52;;;;;;;40.25;30.65;;;11.30;99.90;;;;;;5077514;28;20200;-81
2021/05/20 03:46:19;;;;;;;45.80;29.75;;;11.40;99.90;;;;;;5067551;28;20196;-81
2021/05/20 03:48:46;;;;;;;48.25;31.20;;;11.40;99.90;;;;;;5074291;28;20282;-81
2021/05/20 03:51:14;;;;;;;47.35;33.97;;;11.40;99.90;;;;;;5079807;28;20204;-82
2021/05/20 03:53:41;;;;;;;44.47;32.42;;;11.50;99.90;;;;;;5073845;28;20218;-81
2021/05/20 03:56:07;;;;;;;44.05;31.27;;;11.50;99.90;;;;;;5075166;28;20214;-80
2021/05/20 03:58:34;;;;;;;43.65;31.60;;;11.50;99.90;;;;;;5077039;28;20196;-81
2021/05/20 04:01:00;;;;;;;52.50;33.70;;;11.50;99.90;;;;;;5073353;28;20710;-80
2021/05/20 04:03:28;;;;;;;47.85;33.78;;;11.60;99.90;;;;;;5076607;28;20199;-81
2021/05/20 04:05:55;;;;;;;54.78;34.10;;;11.60;99.90;;;;;;5077763;28;20200;-81
2021/05/20 04:08:23;;;;;;;48.40;32.92;;;11.60;99.90;;;;;;5076381;28;20202;-81
2021/05/20 04:10:51;;;;;;;50.35;33.20;;;11.60;99.90;;;;;;5073912;28;20211;-83
2021/05/20 04:13:27;;;;;;;48.92;32.40;;;11.70;99.90;;;;;;5070352;28;20210;-81
2021/05/20 04:15:54;;;;;;;47.55;33.55;;;11.70;99.90;;;;;;5074245;28;20285;-80
2021/05/20 04:18:21;;;;;;;42.80;31.17;;;11.70;99.90;;;;;;5081230;28;20315;-80
2021/05/20 04:20:47;;;;;;;54.85;35.47;;;11.70;99.90;;;;;;5073096;28;20230;-81
2021/05/20 04:23:14;;;;;;;47.53;31.58;;;11.70;99.90;;;;;;5074424;28;20204;-81
2021/05/20 04:25:43;;;;;;;47.42;33.50;;;11.70;99.90;;;;;;5073706;28;20204;-81
2021/05/20 04:28:10;;;;;;;55.05;31.73;;;11.70;99.90;;;;;;5077779;28;20215;-81
2021/05/20 04:30:37;;;;;;;52.42;32.42;;;11.70;99.90;;;;;;5069821;28;20205;-80
2021/05/20 04:33:04;;;;;;;51.45;33.78;;;11.80;99.90;;;;;;5074356;28;20192;-81
2021/05/20 04:35:30;;;;;;;49.63;31.73;;;11.80;99.90;;;;;;5072834;28;20258;-81
2021/05/20 04:37:57;;;;;;;48.05;32.13;;;11.80;99.90;;;;;;5070606;28;20295;-81
2021/05/20 04:40:24;;;;;;;47.75;31.48;;;11.70;99.90;;;;;;5077557;28;20593;-81
2021/05/20 04:42:52;;;;;;;43.38;29.55;;;11.80;99.90;;;;;;5070517;28;20198;-80
2021/05/20 04:45:19;;;;;;;48.72;30.15;;;11.80;99.90;;;;;;5072107;28;20238;-81
2021/05/20 04:47:46;;;;;;;43.03;28.95;;;11.80;99.90;;;;;;5075474;28;20208;-80
2021/05/20 04:50:13;;;;;;;53.43;32.57;;;11.80;99.90;;;;;;5076703;28;20663;-80
2021/05/20 04:52:41;;;;;;;45.85;28.80;;;11.80;99.90;;;;;;5075845;28;20743;-81
2021/05/20 04:55:09;;;;;;;43.90;30.30;;;11.80;99.90;;;;;;5073650;28;20207;-81
2021/05/20 04:57:35;;;;;;;44.30;28.75;;;11.80;99.90;;;;;;5068318;28;20208;-79
2021/05/20 05:00:05;;;;;;;46.77;31.80;;;11.90;99.90;;;;;;5077831;28;20232;-79
2021/05/20 05:02:32;;;;;;;47.00;30.13;;;11.90;99.90;;;;;;5069584;28;20467;-81
2021/05/20 05:04:58;;;;;;;51.25;29.73;;;11.90;99.90;;;;;;5073843;28;20207;-82
2021/05/20 05:07:25;;;;;;;50.20;29.33;;;11.90;99.90;;;;;;5074003;28;20201;-80
2021/05/20 05:09:52;;;;;;;54.42;31.85;;;12.00;99.90;;;;;;5076781;28;20554;-81
2021/05/20 05:12:19;;;;;;;51.85;30.35;;;12.00;99.90;;;;;;5072486;28;20678;-80
2021/05/20 05:14:46;;;;;;;48.22;29.98;;;12.00;99.90;;;;;;5078145;28;20298;-80
2021/05/20 05:17:14;;;;;;;49.28;30.40;;;12.00;99.90;;;;;;5073139;28;20566;-81
2021/05/20 05:19:41;;;;;;;50.97;31.17;;;12.00;99.90;;;;;;5073446;28;20654;-81
2021/05/20 05:22:09;;;;;;;51.92;30.30;;;12.10;99.90;;;;;;5070758;28;20252;-81
2021/05/20 05:24:36;;;;;;;64.55;33.90;;;12.10;99.90;;;;;;5072069;28;20212;-80
2021/05/20 05:27:04;;;;;;;57.47;34.40;;;12.10;99.90;;;;;;5078442;28;20210;-81
2021/05/20 05:29:32;;;;;;;55.13;31.85;;;12.10;99.90;;;;;;5069382;28;20203;-81
2021/05/20 05:31:59;;;;;;;57.87;31.60;;;12.20;99.90;;;;;;5070329;28;20279;-81
2021/05/20 05:34:26;;;;;;;54.58;33.80;;;12.20;99.90;;;;;;5068893;28;20462;-82
2021/05/20 05:36:53;;;;;;;63.30;34.80;;;12.20;99.90;;;;;;5071192;28;20204;-81
2021/05/20 05:39:20;;;;;;;53.38;33.10;;;12.30;99.90;;;;;;5075924;28;20469;-81
2021/05/20 05:41:47;;;;;;;55.53;33.33;;;12.30;99.90;;;;;;5078495;28;20291;-81
2021/05/20 05:44:13;;;;;;;47.90;30.40;;;12.40;99.90;;;;;;5072868;28;20530;-81
2021/05/20 05:46:40;;;;;;;50.10;31.73;;;12.40;99.90;;;;;;5074770;28;20200;-80
2021/05/20 05:49:14;;;;;;;51.72;30.30;;;12.40;99.90;;;;;;5070073;28;20947;-81
2021/05/20 05:51:45;;;;;;;54.50;33.77;;;12.40;99.90;;;;;;5079620;28;20998;-81
2021/05/20 05:54:12;;;;;;;49.60;32.87;;;12.40;99.90;;;;;;5073959;28;20779;-80
2021/05/20 05:56:38;;;;;;;56.25;35.38;;;12.40;99.90;;;;;;5071601;28;20927;-81
2021/05/20 05:59:05;;;;;;;51.40;31.85;;;12.50;99.90;;;;;;5079773;28;20200;-80
2021/05/20 06:01:32;;;;;;;53.03;33.20;;;12.50;99.90;;;;;;5072881;28;20711;-81
2021/05/20 06:03:59;;;;;;;52.60;32.57;;;12.50;99.90;;;;;;5067993;28;20520;-81
2021/05/20 06:06:26;;;;;;;48.37;30.93;;;12.50;99.90;;;;;;5081396;28;20463;-81
2021/05/20 06:08:53;;;;;;;49.37;33.37;;;12.60;99.90;;;;;;5084474;28;20887;-80
2021/05/20 06:11:20;;;;;;;50.27;31.33;;;12.60;99.90;;;;;;5083373;28;20463;-81
2021/05/20 06:13:46;;;;;;;52.73;34.93;;;12.70;99.90;;;;;;5075248;28;20520;-81
2021/05/20 06:16:12;;;;;;;51.70;34.27;;;12.70;99.90;;;;;;5077429;28;20466;-80
2021/05/20 06:18:39;;;;;;;48.17;30.67;;;12.70;99.90;;;;;;5071574;28;20478;-80
2021/05/20 06:21:05;;;;;;;51.97;33.50;;;12.70;99.90;;;;;;5080364;28;20545;-79
2021/05/20 06:23:32;;;;;;;52.00;33.90;;;12.80;99.90;;;;;;5076295;28;21131;-81
2021/05/20 06:25:59;;;;;;;52.17;35.67;;;12.80;99.90;;;;;;5078489;28;20493;-81
2021/05/20 06:28:26;;;;;;;44.83;29.23;;;12.80;99.90;;;;;;5073269;28;20458;-80
2021/05/20 06:30:52;;;;;;;39.43;30.00;;;12.90;99.90;;;;;;5079948;28;20467;-81
2021/05/20 06:33:19;;;;;;;40.80;29.03;;;12.90;99.90;;;;;;5073200;28;20465;-81
2021/05/20 06:35:46;;;;;;;36.10;25.07;;;12.90;99.90;;;;;;5080118;28;20469;-80
2021/05/20 06:38:13;;;;;;;36.30;25.40;;;12.90;99.90;;;;;;5075365;28;20551;-80
2021/05/20 06:40:39;;;;;;;32.83;23.43;;;13.00;99.90;;;;;;5075136;28;20520;-80
2021/05/20 06:43:06;;;;;;;33.97;24.33;;;13.00;99.90;;;;;;5069636;28;20476;-81
2021/05/20 06:45:33;;;;;;;31.83;22.73;;;13.00;99.90;;;;;;5075733;28;20556;-81
2021/05/20 06:47:59;;;;;;;36.37;25.87;;;13.00;99.90;;;;;;5071845;28;20450;-80
2021/05/20 06:50:25;;;;;;;29.80;24.07;;;13.00;99.90;;;;;;5071200;28;20894;-80
2021/05/20 06:52:54;;;;;;;33.43;23.77;;;13.00;99.90;;;;;;5080981;28;21057;-80
2021/05/20 06:55:20;;;;;;;31.60;23.80;;;13.00;99.90;;;;;;5072299;28;20497;-80
2021/05/20 07:00:32;;;;;;;29.40;22.57;;;13.00;99.90;;;;;;5073628;28;20491;-80
2021/05/20 07:02:58;;;;;;;27.43;21.77;;;13.10;99.90;;;;;;5072090;28;21048;-80
2021/05/20 07:05:25;;;;;;;25.87;20.33;;;13.20;99.90;;;;;;5071584;28;20480;-80
2021/05/20 07:07:52;;;;;;;27.00;21.20;;;13.20;99.90;;;;;;5082048;28;20473;-80
2021/05/20 07:10:18;;;;;;;27.77;21.60;;;13.30;99.90;;;;;;5079808;28;20920;-80
2021/05/20 07:12:44;;;;;;;26.30;21.50;;;13.30;99.90;;;;;;5074493;28;20466;-80
2021/05/20 07:15:12;;;;;;;27.07;20.60;;;13.40;99.90;;;;;;5073724;28;20454;-79
2021/05/20 07:17:39;;;;;;;28.63;21.07;;;13.40;99.90;;;;;;5076311;28;20568;-80
2021/05/20 07:20:08;;;;;;;29.07;23.37;;;13.50;99.90;;;;;;5076281;28;20482;-81
2021/05/20 07:22:34;;;;;;;27.10;20.90;;;13.50;99.90;;;;;;5075770;28;20496;-81
2021/05/20 07:25:02;;;;;;;29.23;22.73;;;13.50;99.90;;;;;;5072792;28;21014;-80
2021/05/20 07:27:29;;;;;;;24.73;20.70;;;13.60;99.90;;;;;;5070267;28;20486;-81
2021/05/20 07:29:56;;;;;;;29.80;22.40;;;13.60;99.90;;;;;;5069819;28;20474;-81
2021/05/20 07:32:22;;;;;;;27.07;22.53;;;13.60;99.90;;;;;;5074279;28;20470;-81
2021/05/20 07:34:49;;;;;;;26.97;20.30;;;13.60;99.90;;;;;;5077659;28;20988;-81
2021/05/20 07:37:16;;;;;;;22.30;18.90;;;13.70;99.90;;;;;;5076967;28;21016;-81
2021/05/20 07:39:42;;;;;;;21.63;18.33;;;13.70;99.90;;;;;;5071322;28;21064;-80
2021/05/20 07:42:09;;;;;;;22.63;17.53;;;13.70;99.90;;;;;;5067721;28;20623;-80
2021/05/20 07:44:36;;;;;;;24.63;17.73;;;13.80;99.90;;;;;;5067875;28;20477;-80
2021/05/20 07:47:03;;;;;;;22.07;17.03;;;13.80;99.90;;;;;;5078560;28;20496;-80
2021/05/20 07:49:31;;;;;;;21.23;15.60;;;14.00;99.90;;;;;;5081421;28;20462;-80
2021/05/20 07:51:58;;;;;;;21.23;16.10;;;14.10;99.90;;;;;;5077581;28;20494;-79
2021/05/20 07:54:25;;;;;;;19.80;15.53;;;14.20;99.90;;;;;;5072628;28;20478;-80
2021/05/20 07:56:51;;;;;;;20.67;15.77;;;14.30;99.90;;;;;;5069362;28;20483;-79
2021/05/20 07:59:18;;;;;;;19.20;15.70;;;14.30;99.90;;;;;;5069694;28;20474;-81
2021/05/20 08:02:03;;;;;;;23.50;15.40;;;14.30;99.90;;;;;;5081538;28;20931;-80
2021/05/20 08:04:31;;;;;;;24.20;17.93;;;14.40;99.90;;;;;;5079660;28;20488;-84
2021/05/20 08:07:03;;;;;;;23.57;18.00;;;14.40;99.90;;;;;;5071523;28;20462;-80
2021/05/20 08:09:32;;;;;;;24.00;18.10;;;14.40;99.90;;;;;;5076574;28;20485;-80
2021/05/20 08:11:59;;;;;;;21.20;17.80;;;14.50;99.90;;;;;;5078627;28;20479;-80
2021/05/20 08:14:25;;;;;;;22.57;17.67;;;14.60;99.90;;;;;;5076110;28;20546;-80
2021/05/20 08:16:52;;;;;;;23.80;18.20;;;14.60;99.90;;;;;;5079957;28;20473;-81
2021/05/20 08:19:18;;;;;;;27.70;20.70;;;14.70;99.90;;;;;;5070629;28;20533;-80
2021/05/20 08:21:44;;;;;;;23.43;20.70;;;14.70;99.90;;;;;;5076841;28;21022;-80
2021/05/20 08:24:12;;;;;;;25.87;20.60;;;14.70;99.90;;;;;;5073157;28;20551;-80
2021/05/20 08:26:38;;;;;;;23.80;18.40;;;14.90;99.90;;;;;;5077692;28;20472;-80
2021/05/20 08:29:05;;;;;;;24.10;18.60;;;14.90;99.90;;;;;;5076961;28;20485;-80
2021/05/20 08:31:32;;;;;;;23.30;18.90;;;15.00;99.90;;;;;;5079085;28;20507;-81
2021/05/20 08:33:59;;;;;;;21.97;18.10;;;15.10;99.90;;;;;;5078267;28;20542;-80
2021/05/20 08:36:25;;;;;;;21.90;18.77;;;15.20;99.90;;;;;;5077978;28;20474;-80
2021/05/20 08:38:51;;;;;;;23.03;19.20;;;15.30;99.90;;;;;;5069050;28;20468;-80
2021/05/20 08:41:20;;;;;;;24.50;20.43;;;15.30;99.90;;;;;;5076915;28;20488;-80
2021/05/20 08:43:47;;;;;;;26.20;21.00;;;15.30;99.90;;;;;;5073979;28;20464;-80
2021/05/20 08:46:21;;;;;;;24.23;19.57;;;15.30;99.90;;;;;;5067991;28;20597;-80
2021/05/20 08:48:47;;;;;;;21.40;19.20;;;15.30;99.90;;;;;;5076237;28;20572;-80
2021/05/20 08:51:14;;;;;;;20.20;17.40;;;15.40;99.90;;;;;;5075328;28;20515;-80
2021/05/20 08:53:40;;;;;;;20.50;18.40;;;15.40;99.90;;;;;;5077549;28;20983;-80
2021/05/20 08:56:11;;;;;;;21.37;17.57;;;15.40;99.90;;;;;;5073471;28;20464;-80
2021/05/20 08:58:38;;;;;;;22.77;18.33;;;15.60;99.90;;;;;;5069497;28;20972;-80
2021/05/20 09:01:05;;;;;;;19.90;16.60;;;15.80;99.90;;;;;;5077413;28;20504;-80
2021/05/20 09:03:32;;;;;;;23.80;17.60;;;16.00;99.90;;;;;;5073392;28;20460;-80
2021/05/20 09:06:04;;;;;;;17.63;15.77;;;16.30;99.90;;;;;;5076807;28;21046;-80
2021/05/20 09:08:35;;;;;;;18.20;16.30;;;16.50;99.90;;;;;;5073480;28;20481;-80
2021/05/20 09:11:02;;;;;;;17.57;15.23;;;16.60;99.90;;;;;;5074858;28;20462;-80
2021/05/20 09:13:37;;;;;;;19.30;16.40;;;16.70;99.90;;;;;;5077115;28;20469;-80
2021/05/20 09:16:13;;;;;;;17.57;15.43;;;16.80;99.90;;;;;;5076490;28;20887;-80
2021/05/20 09:18:40;;;;;;;18.50;15.47;;;17.00;99.90;;;;;;5063504;28;20552;-80
2021/05/20 09:21:08;;;;;;;15.57;13.83;;;17.00;99.90;;;;;;5075258;28;20481;-80
2021/05/20 09:23:45;;;;;;;19.27;17.27;;;17.00;99.90;;;;;;5066637;28;20466;-80
2021/05/20 09:26:12;;;;;;;17.40;15.60;;;17.00;99.90;;;;;;5073309;28;20461;-80
2021/05/20 09:28:41;;;;;;;17.50;14.87;;;17.00;99.90;;;;;;5079145;28;20466;-80
2021/05/20 09:31:08;;;;;;;16.53;14.83;;;17.00;99.90;;;;;;5081650;28;20467;-81
2021/05/20 09:33:36;;;;;;;14.87;13.37;;;16.90;99.90;;;;;;5074252;28;20489;-80
2021/05/20 09:36:03;;;;;;;14.53;13.03;;;16.80;99.90;;;;;;5079920;28;20540;-80
2021/05/20 09:38:29;;;;;;;12.03;10.93;;;16.80;99.90;;;;;;5074770;28;20506;-80
2021/05/20 09:40:58;;;;;;;15.30;11.17;;;17.00;99.90;;;;;;5079453;28;20506;-80
2021/05/20 09:43:27;;;;;;;12.37;11.17;;;17.00;99.90;;;;;;5083165;28;20902;-80
2021/05/20 09:45:55;;;;;;;12.10;10.80;;;17.20;99.90;;;;;;5083088;28;20846;-80
2021/05/20 09:48:25;;;;;;;13.33;11.93;;;17.40;99.90;;;;;;5079545;28;20465;-80
2021/05/20 09:50:54;;;;;;;12.40;11.10;;;17.60;99.90;;;;;;5075667;28;20670;-80
2021/05/20 09:53:21;;;;;;;14.33;10.97;;;17.70;99.90;;;;;;5079201;28;20485;-80
2021/05/20 09:55:52;;;;;;;15.67;12.90;;;17.60;99.90;;;;;;5077255;28;20516;-80
2021/05/20 09:58:21;;;;;;;17.53;12.87;;;17.50;99.90;;;;;;5072112;28;20465;-80
2021/05/20 10:00:48;;;;;;;14.17;11.70;;;17.60;99.90;;;;;;5079464;28;20600;-79
2021/05/20 10:03:17;;;;;;;13.60;12.20;;;17.60;99.90;;;;;;5078842;28;20493;-79
2021/05/20 10:05:45;;;;;;;16.50;11.67;;;17.50;99.90;;;;;;5078113;28;20533;-80
2021/05/20 10:08:15;;;;;;;13.37;11.23;;;17.50;99.90;;;;;;5076613;28;20528;-80
2021/05/20 10:10:44;;;;;;;14.97;11.67;;;17.50;99.90;;;;;;5079640;28;20537;-79
2021/05/20 10:13:13;;;;;;;13.30;11.77;;;17.70;99.90;;;;;;5075557;28;20462;-80
2021/05/20 10:15:40;;;;;;;11.20;10.10;;;17.70;99.90;;;;;;5083456;28;20457;-80
2021/05/20 10:18:08;;;;;;;11.40;9.70;;;17.70;99.90;;;;;;5071316;28;20471;-80
2021/05/20 10:20:35;;;;;;;11.67;8.80;;;17.80;99.90;;;;;;5075918;28;20485;-80
2021/05/20 10:23:06;;;;;;;11.27;9.60;;;18.00;99.90;;;;;;5074268;28;20553;-79
2021/05/20 10:25:34;;;;;;;10.43;9.20;;;18.20;99.90;;;;;;5077339;28;20480;-81
2021/05/20 10:28:01;;;;;;;9.50;8.50;;;18.40;99.90;;;;;;5075059;28;20553;-79
2021/05/20 10:30:27;;;;;;;9.17;8.27;;;18.60;99.90;;;;;;5080243;28;20470;-80
2021/05/20 10:32:58;;;;;;;9.73;8.50;;;18.80;99.90;;;;;;5075235;28;20515;-80
2021/05/20 10:35:38;;;;;;;9.40;8.30;;;19.00;99.90;;;;;;5078945;28;21277;-80
2021/05/20 10:38:05;;;;;;;10.80;8.87;;;19.20;99.90;;;;;;5073846;28;20841;-80
2021/05/20 10:40:34;;;;;;;12.00;9.37;;;19.30;99.90;;;;;;5067940;28;20462;-80
2021/05/20 10:43:05;;;;;;;12.00;9.53;;;19.30;99.90;;;;;;5075091;28;20470;-80
2021/05/20 10:45:33;;;;;;;9.90;8.10;;;19.10;99.90;;;;;;5078052;28;20462;-79
2021/05/20 10:48:22;;;;;;;9.50;7.77;;;18.90;99.90;;;;;;5074100;28;20578;-80
2021/05/20 10:51:16;;;;;;;11.50;8.97;;;19.00;99.90;;;;;;5074026;28;20472;-79
2021/05/20 10:53:53;;;;;;;11.30;8.20;;;19.00;99.90;;;;;;5078743;28;20479;-79
2021/05/20 10:56:57;;;;;;;10.40;9.37;;;18.80;99.90;;;;;;5074500;28;20496;-80
2021/05/20 10:59:42;;;;;;;10.17;7.90;;;18.70;99.90;;;;;;5076712;28;20842;-79
2021/05/20 11:02:16;;;;;;;9.40;7.73;;;18.60;99.90;;;;;;5074788;28;20583;-80
2021/05/20 11:04:44;;;;;;;10.40;6.80;;;18.70;99.90;;;;;;5077264;28;20455;-80
2021/05/20 11:07:11;;;;;;;8.77;7.83;;;18.80;99.90;;;;;;5080637;28;20465;-79
2021/05/20 11:09:48;;;;;;;8.70;6.90;;;19.00;99.90;;;;;;5078913;28;20508;-79
2021/05/20 11:12:17;;;;;;;8.63;6.83;;;19.30;99.90;;;;;;5073177;28;20467;-79
2021/05/20 11:14:45;;;;;;;7.40;6.30;;;19.40;99.90;;;;;;5075226;28;20457;-80
2021/05/20 11:17:32;;;;;;;7.10;6.40;;;19.40;99.60;;;;;;5075220;28;20905;-80
2021/05/20 11:20:31;;;;;;;6.50;5.47;;;19.30;98.40;;;;;;5076292;28;21124;-79
2021/05/20 11:23:42;;;;;;;7.50;5.63;;;19.40;98.00;;;;;;4996281;28;20605;-79
2021/05/20 11:26:25;;;;;;;7.43;6.57;;;19.40;97.50;;;;;;4977754;28;20593;-79
2021/05/20 11:28:58;;;;;;;6.80;5.63;;;19.50;98.20;;;;;;5060776;28;20550;-80
2021/05/20 11:31:25;;;;;;;5.30;4.80;;;19.50;97.30;;;;;;5077115;28;20882;-79
2021/05/20 11:34:21;;;;;;;6.20;4.93;;;19.50;97.80;;;;;;5074609;28;20465;-79
2021/05/20 11:36:48;;;;;;;5.47;4.97;;;19.60;97.80;;;;;;5074911;28;20804;-79
2021/05/20 11:39:17;;;;;;;6.93;5.70;;;19.80;98.20;;;;;;5076924;28;20479;-79
2021/05/20 11:41:44;;;;;;;6.53;5.23;;;19.90;98.10;;;;;;5071921;28;20542;-79
2021/05/20 11:44:14;;;;;;;5.50;5.00;;;19.90;97.00;;;;;;5077408;28;20469;-79
2021/05/20 11:46:43;;;;;;;9.13;5.50;;;19.80;97.50;;;;;;5076510;28;20470;-79
2021/05/20 11:49:21;;;;;;;8.87;6.57;;;19.80;97.70;;;;;;5077369;28;20468;-79
2021/05/20 11:51:50;;;;;;;4.37;3.80;;;20.00;97.80;;;;;;5071866;28;20577;-79
2021/05/20 11:54:18;;;;;;;5.00;4.50;;;20.20;97.00;;;;;;5079365;28;20853;-79
2021/05/20 11:56:48;;;;;;;3.20;2.90;;;20.40;96.90;;;;;;5070602;28;20502;-79
2021/05/20 11:59:16;;;;;;;3.90;3.60;;;20.50;96.70;;;;;;5069865;28;20533;-79
2021/05/20 12:01:44;;;;;;;4.20;3.70;;;20.60;94.90;;;;;;5066504;28;21385;-79
2021/05/20 12:04:11;;;;;;;4.00;3.40;;;20.60;95.40;;;;;;5075240;28;20490;-79
2021/05/20 12:06:38;;;;;;;3.90;3.57;;;20.50;95.60;;;;;;5077711;28;21211;-80
2021/05/20 12:09:06;;;;;;;3.80;3.03;;;20.60;94.90;;;;;;5078693;28;20520;-80
2021/05/20 12:11:32;;;;;;;4.73;4.33;;;20.60;94.80;;;;;;5076379;28;20550;-79
2021/05/20 12:13:58;;;;;;;4.60;3.97;;;20.50;95.00;;;;;;5082782;28;20473;-79
2021/05/20 12:16:31;;;;;;;5.40;3.97;;;20.50;94.50;;;;;;5078244;28;20481;-80
2021/05/20 12:18:58;;;;;;;3.93;3.50;;;20.40;95.20;;;;;;5068915;28;20517;-79
2021/05/20 12:21:24;;;;;;;4.00;3.13;;;20.40;95.50;;;;;;5075147;28;20504;-80
2021/05/20 12:23:55;;;;;;;5.03;3.53;;;20.50;94.00;;;;;;5070631;28;21041;-80
2021/05/20 12:26:26;;;;;;;4.47;3.90;;;20.50;94.50;;;;;;5077487;28;20982;-80
2021/05/20 12:28:53;;;;;;;4.43;3.80;;;20.50;94.80;;;;;;5075750;28;20596;-79
2021/05/20 12:31:20;;;;;;;4.70;3.20;;;20.50;94.30;;;;;;5080537;28;20557;-79
2021/05/20 12:33:47;;;;;;;5.10;4.40;;;20.50;94.20;;;;;;5080149;28;20869;-80
2021/05/20 12:36:35;;;;;;;3.73;3.43;;;20.50;95.10;;;;;;5075515;28;20465;-80
2021/05/20 12:39:01;;;;;;;3.57;3.27;;;20.60;94.20;;;;;;5071735;28;20469;-79
2021/05/20 12:41:35;;;;;;;5.13;3.63;;;20.60;93.70;;;;;;5077678;28;20498;-79
2021/05/20 12:44:15;;;;;;;4.30;3.90;;;20.70;94.20;;;;;;5075088;28;20464;-79
2021/05/20 12:46:42;;;;;;;3.67;3.23;;;20.70;94.10;;;;;;5079829;28;20461;-78
2021/05/20 12:49:11;;;;;;;5.00;4.00;;;20.80;94.20;;;;;;5075581;28;20456;-79
2021/05/20 12:51:37;;;;;;;5.70;3.63;;;20.80;93.40;;;;;;5077101;28;20560;-79
2021/05/20 12:54:07;;;;;;;3.87;3.57;;;20.80;93.80;;;;;;5071608;28;20527;-79